sensor_id;sensor_type;location;lat;lon;timestamp;noise_LAeq;noise_LA_min;noise_LA_max;noise_LA01;noise_LA95
69615;Laerm;56821;52.486;4.680;2023-05-10T00:00:09;36.54;34.08;39.19;;
69615;Laerm;56821;52.486;4.680;2023-05-10T00:00:20;36.38;34.04;38.56;;
69615;Laerm;56821;52.486;4.680;2023-05-10T00:00:32;38.42;35.05;42.00;;
69615;Laerm;56821;52.486;4.680;2023-05-10T00:00:42;36.03;33.47;38.88;;
69615;Laerm;56821;52.486;4.680;2023-05-10T00:00:53;35.17;31.64;37.31;;
69615;Laerm;56821;52.486;4.680;2023-05-10T00:01:03;35.49;33.10;37.98;;
69615;Laerm;56821;52.486;4.680;2023-05-10T00:01:13;36.18;33.51;38.49;;
69615;Laerm;56821;52.486;4.680;2023-05-10T00:01:24;36.30;33.51;38.32;;
69615;Laerm;56821;52.486;4.680;2023-05-10T00:01:34;35.89;32.91;39.85;;
69615;Laerm;56821;52.486;4.680;2023-05-10T00:01:44;35.77;33.33;43.57;;
69615;Laerm;56821;52.486;4.680;2023-05-10T00:01:54;36.05;33.88;39.20;;
69615;Laerm;56821;52.486;4.680;2023-05-10T00:02:04;38.53;35.75;40.77;;
69615;Laerm;56821;52.486;4.680;2023-05-10T00:02:15;36.70;33.69;40.11;;
69615;Laerm;56821;52.486;4.680;2023-05-10T00:02:25;35.61;33.30;40.29;;
69615;Laerm;56821;52.486;4.680;2023-05-10T00:02:36;36.56;34.15;38.58;;
69615;Laerm;56821;52.486;4.680;2023-05-10T00:02:46;37.09;34.62;39.15;;
69615;Laerm;56821;52.486;4.680;2023-05-10T00:02:57;36.35;34.28;38.26;;
69615;Laerm;56821;52.486;4.680;2023-05-10T00:03:07;36.42;33.99;39.05;;
69615;Laerm;56821;52.486;4.680;2023-05-10T00:03:17;35.88;32.80;38.38;;
69615;Laerm;56821;52.486;4.680;2023-05-10T00:03:27;35.60;33.42;37.83;;
69615;Laerm;56821;52.486;4.680;2023-05-10T00:03:38;35.78;33.73;38.21;;
69615;Laerm;56821;52.486;4.680;2023-05-10T00:03:48;35.81;33.78;38.63;;
69615;Laerm;56821;52.486;4.680;2023-05-10T00:03:58;35.93;33.67;38.05;;
69615;Laerm;56821;52.486;4.680;2023-05-10T00:04:09;36.82;34.57;40.28;;
69615;Laerm;56821;52.486;4.680;2023-05-10T00:04:19;37.25;33.84;39.53;;
69615;Laerm;56821;52.486;4.680;2023-05-10T00:04:29;34.82;32.24;37.05;;
69615;Laerm;56821;52.486;4.680;2023-05-10T00:04:40;34.87;32.47;37.92;;
69615;Laerm;56821;52.486;4.680;2023-05-10T00:04:50;34.99;32.51;37.06;;
69615;Laerm;56821;52.486;4.680;2023-05-10T00:05:00;38.85;34.05;42.49;;
69615;Laerm;56821;52.486;4.680;2023-05-10T00:05:11;38.05;35.63;44.09;;
69615;Laerm;56821;52.486;4.680;2023-05-10T00:05:21;37.22;34.87;42.37;;
69615;Laerm;56821;52.486;4.680;2023-05-10T00:05:31;35.21;32.74;37.34;;
69615;Laerm;56821;52.486;4.680;2023-05-10T00:05:41;34.58;32.80;36.26;;
69615;Laerm;56821;52.486;4.680;2023-05-10T00:05:52;37.81;33.86;41.13;;
69615;Laerm;56821;52.486;4.680;2023-05-10T00:06:02;40.23;35.51;42.71;;
69615;Laerm;56821;52.486;4.680;2023-05-10T00:06:12;38.31;35.06;41.18;;
69615;Laerm;56821;52.486;4.680;2023-05-10T00:06:22;39.74;35.07;42.44;;
69615;Laerm;56821;52.486;4.680;2023-05-10T00:06:34;36.55;34.27;38.60;;
69615;Laerm;56821;52.486;4.680;2023-05-10T00:06:44;36.05;34.05;38.21;;
69615;Laerm;56821;52.486;4.680;2023-05-10T00:06:54;35.63;33.51;38.54;;
69615;Laerm;56821;52.486;4.680;2023-05-10T00:07:05;35.78;32.96;38.20;;
69615;Laerm;56821;52.486;4.680;2023-05-10T00:07:15;37.38;35.37;39.92;;
69615;Laerm;56821;52.486;4.680;2023-05-10T00:07:27;35.57;32.76;38.05;;
69615;Laerm;56821;52.486;4.680;2023-05-10T00:07:37;34.77;31.90;39.20;;
69615;Laerm;56821;52.486;4.680;2023-05-10T00:07:47;33.65;31.58;35.77;;
69615;Laerm;56821;52.486;4.680;2023-05-10T00:07:58;33.19;31.23;35.27;;
69615;Laerm;56821;52.486;4.680;2023-05-10T00:08:08;33.69;31.70;35.98;;
69615;Laerm;56821;52.486;4.680;2023-05-10T00:08:18;33.97;31.82;35.78;;
69615;Laerm;56821;52.486;4.680;2023-05-10T00:08:28;33.92;31.70;36.61;;
69615;Laerm;56821;52.486;4.680;2023-05-10T00:08:39;34.36;32.13;37.99;;
69615;Laerm;56821;52.486;4.680;2023-05-10T00:08:49;34.20;31.91;36.66;;
69615;Laerm;56821;52.486;4.680;2023-05-10T00:08:59;34.95;31.83;40.70;;
69615;Laerm;56821;52.486;4.680;2023-05-10T00:09:09;35.22;31.83;40.94;;
69615;Laerm;56821;52.486;4.680;2023-05-10T00:09:20;40.92;34.24;46.61;;
69615;Laerm;56821;52.486;4.680;2023-05-10T00:09:30;40.61;34.64;46.40;;
69615;Laerm;56821;52.486;4.680;2023-05-10T00:09:40;36.74;33.69;41.82;;
69615;Laerm;56821;52.486;4.680;2023-05-10T00:09:50;36.73;33.94;43.55;;
69615;Laerm;56821;52.486;4.680;2023-05-10T00:10:01;35.96;32.92;41.58;;
69615;Laerm;56821;52.486;4.680;2023-05-10T00:10:11;36.02;33.46;39.37;;
69615;Laerm;56821;52.486;4.680;2023-05-10T00:10:21;36.10;32.50;42.84;;
69615;Laerm;56821;52.486;4.680;2023-05-10T00:10:32;34.68;32.35;38.33;;
69615;Laerm;56821;52.486;4.680;2023-05-10T00:10:42;34.64;32.39;37.24;;
69615;Laerm;56821;52.486;4.680;2023-05-10T00:10:52;34.63;32.33;37.00;;
69615;Laerm;56821;52.486;4.680;2023-05-10T00:11:03;34.24;31.87;36.70;;
69615;Laerm;56821;52.486;4.680;2023-05-10T00:11:13;34.03;32.09;36.72;;
69615;Laerm;56821;52.486;4.680;2023-05-10T00:11:23;34.19;31.96;36.20;;
69615;Laerm;56821;52.486;4.680;2023-05-10T00:11:33;34.44;32.36;36.46;;
69615;Laerm;56821;52.486;4.680;2023-05-10T00:11:43;35.68;32.71;38.12;;
69615;Laerm;56821;52.486;4.680;2023-05-10T00:11:54;34.79;32.73;36.77;;
69615;Laerm;56821;52.486;4.680;2023-05-10T00:12:04;36.11;33.29;38.83;;
69615;Laerm;56821;52.486;4.680;2023-05-10T00:12:14;36.00;32.36;38.17;;
69615;Laerm;56821;52.486;4.680;2023-05-10T00:12:25;34.55;31.73;36.94;;
69615;Laerm;56821;52.486;4.680;2023-05-10T00:12:35;35.19;32.89;37.76;;
69615;Laerm;56821;52.486;4.680;2023-05-10T00:12:45;35.18;32.46;37.17;;
69615;Laerm;56821;52.486;4.680;2023-05-10T00:12:55;35.72;33.54;37.92;;
69615;Laerm;56821;52.486;4.680;2023-05-10T00:13:06;35.13;32.90;37.12;;
69615;Laerm;56821;52.486;4.680;2023-05-10T00:13:16;35.42;33.26;38.00;;
69615;Laerm;56821;52.486;4.680;2023-05-10T00:13:26;35.36;32.82;37.65;;
69615;Laerm;56821;52.486;4.680;2023-05-10T00:13:36;37.29;33.79;40.22;;
69615;Laerm;56821;52.486;4.680;2023-05-10T00:13:46;36.23;33.27;38.83;;
69615;Laerm;56821;52.486;4.680;2023-05-10T00:13:57;35.17;32.76;37.57;;
69615;Laerm;56821;52.486;4.680;2023-05-10T00:14:07;35.92;33.28;38.03;;
69615;Laerm;56821;52.486;4.680;2023-05-10T00:14:17;47.52;34.91;52.02;;
69615;Laerm;56821;52.486;4.680;2023-05-10T00:14:28;41.91;37.20;50.16;;
69615;Laerm;56821;52.486;4.680;2023-05-10T00:14:38;42.04;36.30;46.10;;
69615;Laerm;56821;52.486;4.680;2023-05-10T00:14:48;40.68;35.84;43.91;;
69615;Laerm;56821;52.486;4.680;2023-05-10T00:14:59;39.45;35.78;42.75;;
69615;Laerm;56821;52.486;4.680;2023-05-10T00:15:09;41.09;33.75;48.08;;
69615;Laerm;56821;52.486;4.680;2023-05-10T00:15:19;35.24;32.66;37.48;;
69615;Laerm;56821;52.486;4.680;2023-05-10T00:15:29;34.30;32.30;36.89;;
69615;Laerm;56821;52.486;4.680;2023-05-10T00:15:43;34.28;32.01;36.51;;
69615;Laerm;56821;52.486;4.680;2023-05-10T00:15:53;34.45;32.34;36.80;;
69615;Laerm;56821;52.486;4.680;2023-05-10T00:16:03;34.65;31.71;37.01;;
69615;Laerm;56821;52.486;4.680;2023-05-10T00:16:13;34.74;31.79;43.45;;
69615;Laerm;56821;52.486;4.680;2023-05-10T00:16:24;35.51;33.16;38.55;;
69615;Laerm;56821;52.486;4.680;2023-05-10T00:16:34;35.94;33.00;38.65;;
69615;Laerm;56821;52.486;4.680;2023-05-10T00:16:44;43.17;36.82;45.68;;
69615;Laerm;56821;52.486;4.680;2023-05-10T00:16:54;42.88;36.78;46.10;;
69615;Laerm;56821;52.486;4.680;2023-05-10T00:17:05;38.55;35.75;40.80;;
69615;Laerm;56821;52.486;4.680;2023-05-10T00:17:15;38.35;34.16;42.65;;
69615;Laerm;56821;52.486;4.680;2023-05-10T00:17:25;37.92;33.60;41.14;;
69615;Laerm;56821;52.486;4.680;2023-05-10T00:17:35;35.40;32.96;37.78;;
69615;Laerm;56821;52.486;4.680;2023-05-10T00:17:45;34.94;32.65;37.39;;
69615;Laerm;56821;52.486;4.680;2023-05-10T00:17:56;35.08;32.71;37.69;;
69615;Laerm;56821;52.486;4.680;2023-05-10T00:18:06;35.96;33.21;38.55;;
69615;Laerm;56821;52.486;4.680;2023-05-10T00:18:16;36.05;33.54;38.57;;
69615;Laerm;56821;52.486;4.680;2023-05-10T00:18:27;36.26;33.50;38.89;;
69615;Laerm;56821;52.486;4.680;2023-05-10T00:18:37;36.35;33.29;39.21;;
69615;Laerm;56821;52.486;4.680;2023-05-10T00:18:47;37.03;33.89;39.67;;
69615;Laerm;56821;52.486;4.680;2023-05-10T00:18:57;36.91;33.60;39.60;;
69615;Laerm;56821;52.486;4.680;2023-05-10T00:19:08;37.11;34.77;40.16;;
69615;Laerm;56821;52.486;4.680;2023-05-10T00:19:18;36.96;33.94;40.88;;
69615;Laerm;56821;52.486;4.680;2023-05-10T00:19:28;37.43;33.83;40.76;;
69615;Laerm;56821;52.486;4.680;2023-05-10T00:19:38;38.29;34.58;41.35;;
69615;Laerm;56821;52.486;4.680;2023-05-10T00:19:48;36.62;33.91;40.05;;
69615;Laerm;56821;52.486;4.680;2023-05-10T00:19:59;35.73;33.34;38.06;;
69615;Laerm;56821;52.486;4.680;2023-05-10T00:20:09;36.42;34.16;39.32;;
69615;Laerm;56821;52.486;4.680;2023-05-10T00:20:20;35.94;33.39;39.13;;
69615;Laerm;56821;52.486;4.680;2023-05-10T00:20:30;35.65;33.33;38.16;;
69615;Laerm;56821;52.486;4.680;2023-05-10T00:20:40;35.63;33.10;38.89;;
69615;Laerm;56821;52.486;4.680;2023-05-10T00:20:51;35.35;32.63;37.53;;
69615;Laerm;56821;52.486;4.680;2023-05-10T00:21:01;38.30;34.85;41.18;;
69615;Laerm;56821;52.486;4.680;2023-05-10T00:21:11;36.57;32.56;39.78;;
69615;Laerm;56821;52.486;4.680;2023-05-10T00:21:21;35.17;32.55;37.64;;
69615;Laerm;56821;52.486;4.680;2023-05-10T00:21:32;35.19;32.96;38.24;;
69615;Laerm;56821;52.486;4.680;2023-05-10T00:21:43;35.61;32.65;38.33;;
69615;Laerm;56821;52.486;4.680;2023-05-10T00:21:53;35.22;32.23;38.97;;
69615;Laerm;56821;52.486;4.680;2023-05-10T00:22:03;35.90;33.25;38.97;;
69615;Laerm;56821;52.486;4.680;2023-05-10T00:22:14;37.36;34.79;39.40;;
69615;Laerm;56821;52.486;4.680;2023-05-10T00:22:24;35.67;33.22;38.18;;
69615;Laerm;56821;52.486;4.680;2023-05-10T00:22:34;35.19;32.34;37.33;;
69615;Laerm;56821;52.486;4.680;2023-05-10T00:22:44;35.13;33.09;37.03;;
69615;Laerm;56821;52.486;4.680;2023-05-10T00:22:55;34.34;31.62;36.83;;
69615;Laerm;56821;52.486;4.680;2023-05-10T00:23:05;33.98;31.70;36.84;;
69615;Laerm;56821;52.486;4.680;2023-05-10T00:23:15;33.40;31.28;35.35;;
69615;Laerm;56821;52.486;4.680;2023-05-10T00:23:25;33.60;31.24;35.70;;
69615;Laerm;56821;52.486;4.680;2023-05-10T00:23:35;37.00;32.64;40.63;;
69615;Laerm;56821;52.486;4.680;2023-05-10T00:23:46;40.70;33.86;43.62;;
69615;Laerm;56821;52.486;4.680;2023-05-10T00:23:56;36.64;33.87;40.17;;
69615;Laerm;56821;52.486;4.680;2023-05-10T00:24:06;34.24;30.86;37.31;;
69615;Laerm;56821;52.486;4.680;2023-05-10T00:24:16;32.83;30.58;34.68;;
69615;Laerm;56821;52.486;4.680;2023-05-10T00:24:27;36.22;32.39;38.89;;
69615;Laerm;56821;52.486;4.680;2023-05-10T00:24:37;34.95;31.61;37.51;;
69615;Laerm;56821;52.486;4.680;2023-05-10T00:24:47;32.55;30.43;35.44;;
69615;Laerm;56821;52.486;4.680;2023-05-10T00:24:58;31.23;29.59;34.02;;
69615;Laerm;56821;52.486;4.680;2023-05-10T00:25:08;30.96;29.22;33.28;;
69615;Laerm;56821;52.486;4.680;2023-05-10T00:25:19;31.02;29.21;32.71;;
69615;Laerm;56821;52.486;4.680;2023-05-10T00:25:31;31.38;29.54;33.11;;
69615;Laerm;56821;52.486;4.680;2023-05-10T00:25:41;32.22;29.90;35.54;;
69615;Laerm;56821;52.486;4.680;2023-05-10T00:25:51;36.22;33.13;38.80;;
69615;Laerm;56821;52.486;4.680;2023-05-10T00:26:02;31.90;29.26;35.43;;
69615;Laerm;56821;52.486;4.680;2023-05-10T00:26:12;30.46;29.12;32.02;;
69615;Laerm;56821;52.486;4.680;2023-05-10T00:26:22;30.27;28.99;31.38;;
69615;Laerm;56821;52.486;4.680;2023-05-10T00:26:32;30.59;29.20;32.16;;
69615;Laerm;56821;52.486;4.680;2023-05-10T00:26:43;36.72;30.78;40.42;;
69615;Laerm;56821;52.486;4.680;2023-05-10T00:26:53;37.99;31.67;41.65;;
69615;Laerm;56821;52.486;4.680;2023-05-10T00:27:03;33.84;31.71;36.06;;
69615;Laerm;56821;52.486;4.680;2023-05-10T00:27:14;32.97;30.66;34.98;;
69615;Laerm;56821;52.486;4.680;2023-05-10T00:27:24;33.05;31.25;35.58;;
69615;Laerm;56821;52.486;4.680;2023-05-10T00:27:34;32.88;30.64;38.42;;
69615;Laerm;56821;52.486;4.680;2023-05-10T00:27:44;34.71;30.40;39.70;;
69615;Laerm;56821;52.486;4.680;2023-05-10T00:27:55;31.27;29.70;34.73;;
69615;Laerm;56821;52.486;4.680;2023-05-10T00:28:07;31.96;30.25;36.13;;
69615;Laerm;56821;52.486;4.680;2023-05-10T00:28:17;31.80;30.21;33.35;;
69615;Laerm;56821;52.486;4.680;2023-05-10T00:28:27;32.20;30.02;35.34;;
69615;Laerm;56821;52.486;4.680;2023-05-10T00:28:38;33.15;31.56;35.05;;
69615;Laerm;56821;52.486;4.680;2023-05-10T00:28:48;31.45;30.05;33.73;;
69615;Laerm;56821;52.486;4.680;2023-05-10T00:28:59;31.33;29.45;33.13;;
69615;Laerm;56821;52.486;4.680;2023-05-10T00:29:09;31.72;29.59;33.33;;
69615;Laerm;56821;52.486;4.680;2023-05-10T00:29:20;32.13;29.81;34.25;;
69615;Laerm;56821;52.486;4.680;2023-05-10T00:29:30;31.84;29.56;33.51;;
69615;Laerm;56821;52.486;4.680;2023-05-10T00:29:41;31.71;30.21;33.53;;
69615;Laerm;56821;52.486;4.680;2023-05-10T00:29:52;31.63;30.15;33.65;;
69615;Laerm;56821;52.486;4.680;2023-05-10T00:30:02;31.55;30.06;32.98;;
69615;Laerm;56821;52.486;4.680;2023-05-10T00:30:12;32.17;30.38;34.21;;
69615;Laerm;56821;52.486;4.680;2023-05-10T00:30:23;31.93;30.06;33.64;;
69615;Laerm;56821;52.486;4.680;2023-05-10T00:30:33;32.10;30.57;34.33;;
69615;Laerm;56821;52.486;4.680;2023-05-10T00:30:43;31.87;29.84;34.32;;
69615;Laerm;56821;52.486;4.680;2023-05-10T00:30:53;32.69;30.67;35.06;;
69615;Laerm;56821;52.486;4.680;2023-05-10T00:31:04;34.00;31.30;36.00;;
69615;Laerm;56821;52.486;4.680;2023-05-10T00:31:14;34.03;30.24;38.27;;
69615;Laerm;56821;52.486;4.680;2023-05-10T00:31:24;33.54;30.24;42.39;;
69615;Laerm;56821;52.486;4.680;2023-05-10T00:31:34;32.38;30.67;37.44;;
69615;Laerm;56821;52.486;4.680;2023-05-10T00:31:45;32.42;30.29;34.47;;
69615;Laerm;56821;52.486;4.680;2023-05-10T00:31:55;35.50;31.12;40.63;;
69615;Laerm;56821;52.486;4.680;2023-05-10T00:32:06;43.26;39.04;46.06;;
69615;Laerm;56821;52.486;4.680;2023-05-10T00:32:16;37.74;33.30;43.34;;
69615;Laerm;56821;52.486;4.680;2023-05-10T00:32:26;33.05;30.09;35.67;;
69615;Laerm;56821;52.486;4.680;2023-05-10T00:32:37;32.19;30.93;33.98;;
69615;Laerm;56821;52.486;4.680;2023-05-10T00:32:47;32.63;30.19;36.27;;
69615;Laerm;56821;52.486;4.680;2023-05-10T00:32:59;34.79;31.03;37.86;;
69615;Laerm;56821;52.486;4.680;2023-05-10T00:33:10;31.24;29.39;33.31;;
69615;Laerm;56821;52.486;4.680;2023-05-10T00:33:21;31.47;29.51;34.42;;
69615;Laerm;56821;52.486;4.680;2023-05-10T00:33:31;31.51;29.51;33.97;;
69615;Laerm;56821;52.486;4.680;2023-05-10T00:33:42;31.64;29.56;35.88;;
69615;Laerm;56821;52.486;4.680;2023-05-10T00:33:52;31.83;29.91;33.93;;
69615;Laerm;56821;52.486;4.680;2023-05-10T00:34:02;32.13;30.30;34.55;;
69615;Laerm;56821;52.486;4.680;2023-05-10T00:34:13;32.41;30.38;34.49;;
69615;Laerm;56821;52.486;4.680;2023-05-10T00:34:23;32.28;30.78;34.39;;
69615;Laerm;56821;52.486;4.680;2023-05-10T00:34:34;31.63;30.07;36.37;;
69615;Laerm;56821;52.486;4.680;2023-05-10T00:34:44;31.24;29.52;33.31;;
69615;Laerm;56821;52.486;4.680;2023-05-10T00:34:55;31.38;29.74;34.10;;
69615;Laerm;56821;52.486;4.680;2023-05-10T00:35:05;31.09;29.29;36.69;;
69615;Laerm;56821;52.486;4.680;2023-05-10T00:35:15;30.72;29.18;32.87;;
69615;Laerm;56821;52.486;4.680;2023-05-10T00:35:25;30.60;29.21;32.29;;
69615;Laerm;56821;52.486;4.680;2023-05-10T00:35:36;30.70;29.18;32.22;;
69615;Laerm;56821;52.486;4.680;2023-05-10T00:35:47;30.71;29.22;32.42;;
69615;Laerm;56821;52.486;4.680;2023-05-10T00:35:58;31.14;29.50;35.61;;
69615;Laerm;56821;52.486;4.680;2023-05-10T00:36:08;31.17;29.55;33.56;;
69615;Laerm;56821;52.486;4.680;2023-05-10T00:36:18;34.83;30.48;38.22;;
69615;Laerm;56821;52.486;4.680;2023-05-10T00:36:28;34.87;31.13;39.11;;
69615;Laerm;56821;52.486;4.680;2023-05-10T00:36:39;31.33;29.38;33.54;;
69615;Laerm;56821;52.486;4.680;2023-05-10T00:36:49;30.34;28.83;32.11;;
69615;Laerm;56821;52.486;4.680;2023-05-10T00:36:59;30.88;29.28;33.91;;
69615;Laerm;56821;52.486;4.680;2023-05-10T00:37:09;32.22;30.65;35.31;;
69615;Laerm;56821;52.486;4.680;2023-05-10T00:37:19;35.33;31.16;38.17;;
69615;Laerm;56821;52.486;4.680;2023-05-10T00:37:30;32.79;29.24;36.83;;
69615;Laerm;56821;52.486;4.680;2023-05-10T00:37:40;29.93;28.62;33.65;;
69615;Laerm;56821;52.486;4.680;2023-05-10T00:37:50;33.02;29.24;36.37;;
69615;Laerm;56821;52.486;4.680;2023-05-10T00:38:00;32.51;29.46;35.35;;
69615;Laerm;56821;52.486;4.680;2023-05-10T00:38:11;30.23;28.92;32.00;;
69615;Laerm;56821;52.486;4.680;2023-05-10T00:38:21;30.93;28.93;33.09;;
69615;Laerm;56821;52.486;4.680;2023-05-10T00:38:31;31.97;29.36;35.04;;
69615;Laerm;56821;52.486;4.680;2023-05-10T00:38:42;33.59;31.09;36.69;;
69615;Laerm;56821;52.486;4.680;2023-05-10T00:38:52;35.68;30.91;50.31;;
69615;Laerm;56821;52.486;4.680;2023-05-10T00:39:02;40.36;36.48;43.26;;
69615;Laerm;56821;52.486;4.680;2023-05-10T00:39:13;34.82;30.60;40.77;;
69615;Laerm;56821;52.486;4.680;2023-05-10T00:39:23;32.33;30.40;34.55;;
69615;Laerm;56821;52.486;4.680;2023-05-10T00:39:34;30.61;28.90;32.11;;
69615;Laerm;56821;52.486;4.680;2023-05-10T00:39:44;31.07;29.67;32.68;;
69615;Laerm;56821;52.486;4.680;2023-05-10T00:39:54;31.29;29.05;32.69;;
69615;Laerm;56821;52.486;4.680;2023-05-10T00:40:05;31.42;29.90;33.48;;
69615;Laerm;56821;52.486;4.680;2023-05-10T00:40:15;32.24;29.64;35.41;;
69615;Laerm;56821;52.486;4.680;2023-05-10T00:40:26;33.61;30.77;36.34;;
69615;Laerm;56821;52.486;4.680;2023-05-10T00:40:36;30.48;28.41;33.46;;
69615;Laerm;56821;52.486;4.680;2023-05-10T00:40:47;29.49;28.24;30.87;;
69615;Laerm;56821;52.486;4.680;2023-05-10T00:40:57;29.66;28.32;30.87;;
69615;Laerm;56821;52.486;4.680;2023-05-10T00:41:07;29.71;28.25;32.06;;
69615;Laerm;56821;52.486;4.680;2023-05-10T00:41:18;29.69;28.50;31.30;;
69615;Laerm;56821;52.486;4.680;2023-05-10T00:41:28;29.83;28.72;31.27;;
69615;Laerm;56821;52.486;4.680;2023-05-10T00:41:39;31.17;28.65;34.41;;
69615;Laerm;56821;52.486;4.680;2023-05-10T00:41:49;35.44;31.82;37.93;;
69615;Laerm;56821;52.486;4.680;2023-05-10T00:41:59;31.85;29.90;34.87;;
69615;Laerm;56821;52.486;4.680;2023-05-10T00:42:10;31.64;29.77;33.47;;
69615;Laerm;56821;52.486;4.680;2023-05-10T00:42:20;30.16;28.69;32.75;;
69615;Laerm;56821;52.486;4.680;2023-05-10T00:42:30;30.05;28.55;33.07;;
69615;Laerm;56821;52.486;4.680;2023-05-10T00:42:40;30.88;29.34;32.37;;
69615;Laerm;56821;52.486;4.680;2023-05-10T00:42:51;30.06;28.92;31.78;;
69615;Laerm;56821;52.486;4.680;2023-05-10T00:43:01;29.61;28.46;30.58;;
69615;Laerm;56821;52.486;4.680;2023-05-10T00:43:11;29.65;28.52;30.91;;
69615;Laerm;56821;52.486;4.680;2023-05-10T00:43:22;30.05;28.44;32.58;;
69615;Laerm;56821;52.486;4.680;2023-05-10T00:43:32;30.48;28.75;32.12;;
69615;Laerm;56821;52.486;4.680;2023-05-10T00:43:42;31.24;29.44;32.93;;
69615;Laerm;56821;52.486;4.680;2023-05-10T00:43:52;34.31;31.08;37.95;;
69615;Laerm;56821;52.486;4.680;2023-05-10T00:44:03;36.86;34.21;39.64;;
69615;Laerm;56821;52.486;4.680;2023-05-10T00:44:14;32.90;29.89;36.05;;
69615;Laerm;56821;52.486;4.680;2023-05-10T00:44:24;30.56;29.18;32.56;;
69615;Laerm;56821;52.486;4.680;2023-05-10T00:44:34;29.87;28.15;31.15;;
69615;Laerm;56821;52.486;4.680;2023-05-10T00:44:44;29.56;28.37;31.68;;
69615;Laerm;56821;52.486;4.680;2023-05-10T00:44:55;29.41;28.17;31.22;;
69615;Laerm;56821;52.486;4.680;2023-05-10T00:45:05;30.66;28.86;32.84;;
69615;Laerm;56821;52.486;4.680;2023-05-10T00:45:16;30.44;28.68;32.58;;
69615;Laerm;56821;52.486;4.680;2023-05-10T00:45:26;30.14;28.64;31.86;;
69615;Laerm;56821;52.486;4.680;2023-05-10T00:45:37;30.38;29.13;31.94;;
69615;Laerm;56821;52.486;4.680;2023-05-10T00:45:47;30.86;29.77;33.31;;
69615;Laerm;56821;52.486;4.680;2023-05-10T00:45:57;35.16;29.58;39.52;;
69615;Laerm;56821;52.486;4.680;2023-05-10T00:46:08;34.73;30.28;40.63;;
69615;Laerm;56821;52.486;4.680;2023-05-10T00:46:18;30.50;29.23;32.06;;
69615;Laerm;56821;52.486;4.680;2023-05-10T00:46:28;30.56;29.26;34.27;;
69615;Laerm;56821;52.486;4.680;2023-05-10T00:46:39;31.07;29.40;32.94;;
69615;Laerm;56821;52.486;4.680;2023-05-10T00:46:49;32.87;30.75;36.21;;
69615;Laerm;56821;52.486;4.680;2023-05-10T00:46:59;33.57;30.35;37.28;;
69615;Laerm;56821;52.486;4.680;2023-05-10T00:47:10;35.07;31.87;38.43;;
69615;Laerm;56821;52.486;4.680;2023-05-10T00:47:20;31.37;29.88;33.23;;
69615;Laerm;56821;52.486;4.680;2023-05-10T00:47:31;30.66;29.27;32.79;;
69615;Laerm;56821;52.486;4.680;2023-05-10T00:47:42;30.80;29.32;32.23;;
69615;Laerm;56821;52.486;4.680;2023-05-10T00:47:52;31.86;30.38;35.08;;
69615;Laerm;56821;52.486;4.680;2023-05-10T00:48:05;31.87;30.28;33.56;;
69615;Laerm;56821;52.486;4.680;2023-05-10T00:48:15;31.20;29.22;33.33;;
69615;Laerm;56821;52.486;4.680;2023-05-10T00:48:25;30.94;29.25;32.49;;
69615;Laerm;56821;52.486;4.680;2023-05-10T00:48:36;30.15;28.70;32.42;;
69615;Laerm;56821;52.486;4.680;2023-05-10T00:48:46;30.55;28.97;32.99;;
69615;Laerm;56821;52.486;4.680;2023-05-10T00:48:56;34.75;30.95;38.35;;
69615;Laerm;56821;52.486;4.680;2023-05-10T00:49:07;31.07;29.12;35.89;;
69615;Laerm;56821;52.486;4.680;2023-05-10T00:49:17;29.93;28.78;31.69;;
69615;Laerm;56821;52.486;4.680;2023-05-10T00:49:27;29.65;28.39;31.61;;
69615;Laerm;56821;52.486;4.680;2023-05-10T00:49:38;29.41;28.43;30.61;;
69615;Laerm;56821;52.486;4.680;2023-05-10T00:49:48;29.56;28.38;32.39;;
69615;Laerm;56821;52.486;4.680;2023-05-10T00:49:59;30.09;28.51;33.25;;
69615;Laerm;56821;52.486;4.680;2023-05-10T00:50:10;30.59;29.09;32.63;;
69615;Laerm;56821;52.486;4.680;2023-05-10T00:50:21;30.71;29.04;32.77;;
69615;Laerm;56821;52.486;4.680;2023-05-10T00:50:32;29.64;27.80;31.66;;
69615;Laerm;56821;52.486;4.680;2023-05-10T00:50:43;29.53;28.10;40.84;;
69615;Laerm;56821;52.486;4.680;2023-05-10T00:50:53;29.28;28.11;32.55;;
69615;Laerm;56821;52.486;4.680;2023-05-10T00:51:04;29.54;28.00;32.34;;
69615;Laerm;56821;52.486;4.680;2023-05-10T00:51:14;29.79;28.52;31.19;;
69615;Laerm;56821;52.486;4.680;2023-05-10T00:51:25;30.23;28.84;33.73;;
69615;Laerm;56821;52.486;4.680;2023-05-10T00:51:35;29.68;28.47;30.94;;
69615;Laerm;56821;52.486;4.680;2023-05-10T00:51:46;29.51;28.03;30.64;;
69615;Laerm;56821;52.486;4.680;2023-05-10T00:51:57;30.19;28.56;32.52;;
69615;Laerm;56821;52.486;4.680;2023-05-10T00:52:07;33.39;29.71;37.48;;
69615;Laerm;56821;52.486;4.680;2023-05-10T00:52:18;40.25;36.04;42.71;;
69615;Laerm;56821;52.486;4.680;2023-05-10T00:52:28;39.78;34.34;42.99;;
69615;Laerm;56821;52.486;4.680;2023-05-10T00:52:39;34.21;32.12;36.61;;
69615;Laerm;56821;52.486;4.680;2023-05-10T00:52:49;31.23;29.62;34.21;;
69615;Laerm;56821;52.486;4.680;2023-05-10T00:53:00;30.51;29.43;32.18;;
69615;Laerm;56821;52.486;4.680;2023-05-10T00:53:11;30.53;29.06;32.54;;
69615;Laerm;56821;52.486;4.680;2023-05-10T00:53:21;33.17;30.06;37.28;;
69615;Laerm;56821;52.486;4.680;2023-05-10T00:53:32;32.40;29.28;35.35;;
69615;Laerm;56821;52.486;4.680;2023-05-10T00:53:43;30.56;29.12;35.46;;
69615;Laerm;56821;52.486;4.680;2023-05-10T00:53:54;42.83;28.13;62.12;;
69615;Laerm;56821;52.486;4.680;2023-05-10T00:54:05;30.95;28.44;42.93;;
69615;Laerm;56821;52.486;4.680;2023-05-10T00:54:16;29.84;28.20;40.06;;
69615;Laerm;56821;52.486;4.680;2023-05-10T00:54:27;30.61;28.53;33.54;;
69615;Laerm;56821;52.486;4.680;2023-05-10T00:54:37;31.20;29.19;33.77;;
69615;Laerm;56821;52.486;4.680;2023-05-10T00:54:47;34.33;31.63;36.44;;
69615;Laerm;56821;52.486;4.680;2023-05-10T00:54:58;33.84;30.13;37.43;;
69615;Laerm;56821;52.486;4.680;2023-05-10T00:55:09;32.39;29.48;38.02;;
69615;Laerm;56821;52.486;4.680;2023-05-10T00:55:19;30.45;29.01;32.35;;
69615;Laerm;56821;52.486;4.680;2023-05-10T00:55:30;30.47;28.98;34.60;;
69615;Laerm;56821;52.486;4.680;2023-05-10T00:55:41;29.93;28.33;36.86;;
69615;Laerm;56821;52.486;4.680;2023-05-10T00:55:51;35.64;28.84;48.03;;
69615;Laerm;56821;52.486;4.680;2023-05-10T00:56:02;33.17;30.09;42.12;;
69615;Laerm;56821;52.486;4.680;2023-05-10T00:56:13;32.66;30.48;36.85;;
69615;Laerm;56821;52.486;4.680;2023-05-10T00:56:23;32.46;29.78;37.51;;
69615;Laerm;56821;52.486;4.680;2023-05-10T00:56:34;31.03;29.25;32.82;;
69615;Laerm;56821;52.486;4.680;2023-05-10T00:56:44;30.94;28.93;38.14;;
69615;Laerm;56821;52.486;4.680;2023-05-10T00:56:58;34.85;28.65;45.77;;
69615;Laerm;56821;52.486;4.680;2023-05-10T00:57:08;32.22;29.03;40.56;;
69615;Laerm;56821;52.486;4.680;2023-05-10T00:57:19;32.65;29.85;45.13;;
69615;Laerm;56821;52.486;4.680;2023-05-10T00:57:29;32.29;29.11;43.51;;
69615;Laerm;56821;52.486;4.680;2023-05-10T00:57:40;33.62;30.98;41.87;;
69615;Laerm;56821;52.486;4.680;2023-05-10T00:57:51;32.69;28.62;45.03;;
69615;Laerm;56821;52.486;4.680;2023-05-10T00:58:02;30.24;28.30;37.41;;
69615;Laerm;56821;52.486;4.680;2023-05-10T00:58:12;30.83;28.98;46.22;;
69615;Laerm;56821;52.486;4.680;2023-05-10T00:58:22;30.73;29.04;32.42;;